Time;durP1;ratioP1;P1;durP2;ratioP2;P2;SDS_P1;SDS_P2;PMS_P1;PMS_P2;Temp;Humidity;BMP_temperature;BMP_pressure;BME280_temperature;BME280_humidity;BME280_pressure;Samples;Min_cycle;Max_cycle;Signal;HPM_P1;HPM_P2
2022/04/02 00:03:51;;;;;;;22.57;4.07;;;;;;;11.44;63.63;98733.16;30792949;28;20124;-75
2022/04/02 00:18:53;;;;;;;15.10;3.73;;;;;;;11.22;65.14;98706.19;30804255;28;20430;-75
2022/04/02 00:33:56;;;;;;;25.27;4.20;;;;;;;11.06;66.62;98679.38;30751997;28;20054;-75
2022/04/02 00:48:58;;;;;;;21.93;3.33;;;;;;;10.94;66.76;98680.28;30751947;28;21117;-74
2022/04/02 01:04:00;;;;;;;23.70;4.07;;;;;;;10.63;68.71;98666.16;30783794;28;20066;-74
2022/04/02 01:19:04;;;;;;;12.63;3.03;;;;;;;10.43;70.70;98650.31;30756654;28;20890;-74
2022/04/02 01:34:06;;;;;;;23.77;4.17;;;;;;;10.47;71.18;98594.69;30778908;28;20061;-74
2022/04/02 01:49:08;;;;;;;7.90;3.03;;;;;;;10.54;70.32;98616.09;30768607;28;20069;-75
2022/04/02 02:04:11;;;;;;;31.57;4.50;;;;;;;10.51;70.02;98594.53;30773750;28;20483;-74
2022/04/02 02:19:13;;;;;;;21.97;3.77;;;;;;;10.20;71.27;98576.47;30759084;28;20055;-74
2022/04/02 02:49:36;;;;;;;17.57;3.70;;;;;;;9.99;72.47;98549.47;30759880;28;20065;-75
2022/04/02 03:04:38;;;;;;;18.13;2.97;;;;;;;9.84;73.17;98565.59;30765783;28;20150;-74
2022/04/02 03:19:40;;;;;;;20.13;3.60;;;;;;;9.62;73.25;98575.78;30778010;28;20598;-75
2022/04/02 03:34:42;;;;;;;16.63;3.00;;;;;;;9.61;73.68;98564.19;30778210;28;20055;-75
2022/04/02 03:49:46;;;;;;;18.23;3.67;;;;;;;9.87;72.70;98560.03;30765724;28;20051;-75
2022/04/02 04:04:49;;;;;;;13.73;2.93;;;;;;;9.96;72.72;98537.56;30765674;28;20050;-74
2022/04/02 04:19:51;;;;;;;20.93;3.90;;;;;;;10.52;70.56;98545.25;30776348;28;20051;-74
2022/04/02 04:34:53;;;;;;;20.13;2.87;;;;;;;10.94;69.30;98528.25;30768333;28;20063;-74
2022/04/02 04:49:55;;;;;;;22.93;4.67;;;;;;;11.78;67.88;98536.31;30856234;28;20055;-73
2022/04/02 05:04:57;;;;;;;8.73;3.20;;;;;;;12.38;65.71;98546.09;30856633;28;20051;-74
2022/04/02 05:20:19;;;;;;;12.77;4.17;;;;;;;13.06;64.31;98548.69;30857881;28;20058;-74
2022/04/02 05:35:24;;;;;;;15.57;3.77;;;;;;;13.96;61.48;98537.78;30862276;28;20058;-74
2022/04/02 05:50:31;;;;;;;19.10;4.73;;;;;;;14.33;60.87;98550.84;30862473;28;20167;-74
2022/04/02 06:05:40;;;;;;;28.13;4.97;;;;;;;14.65;61.17;98538.75;30866357;28;20055;-74
2022/04/02 06:20:42;;;;;;;22.20;4.50;;;;;;;15.90;58.21;98526.16;30883979;28;20115;-72
2022/04/02 06:35:44;;;;;;;24.33;5.10;;;;;;;16.95;54.95;98496.72;30886290;28;20533;-73
2022/04/02 06:50:47;;;;;;;19.95;3.60;;;;;;;18.08;52.88;98503.34;30892599;28;20046;-72
2022/04/02 07:05:50;;;;;;;12.20;3.55;;;;;;;19.28;49.20;98529.69;30864787;28;20455;-72
2022/04/02 07:20:53;;;;;;;15.80;4.05;;;;;;;20.26;46.58;98522.03;30864643;28;20055;-73
2022/04/02 07:36:04;;;;;;;25.80;3.40;;;;;;;21.44;43.66;98538.22;30871842;28;20141;-72
2022/04/02 07:51:12;;;;;;;13.55;3.65;;;;;;;21.64;42.76;98511.25;30870912;28;20142;-73
2022/04/02 08:06:15;;;;;;;14.90;3.63;;;;;;;22.28;41.99;98511.66;30873763;28;20448;-75
2022/04/02 08:21:17;;;;;;;9.85;2.83;;;;;;;22.65;39.17;98493.97;30869330;28;20387;-75
2022/04/02 08:36:40;;;;;;;18.80;2.90;;;;;;;23.40;38.31;98481.97;30873153;28;20098;-71
2022/04/02 08:51:45;;;;;;;;;;;;;;;23.32;38.04;98453.53;30864816;28;20051;-72
2022/04/02 09:07:03;;;;;;;12.43;3.65;;;;;;;23.52;38.17;98452.00;30828615;28;19932;-73
2022/04/02 09:22:20;;;;;;;14.77;2.88;;;;;;;23.12;38.80;98479.25;30867872;28;20072;-79
2022/04/02 09:37:48;;;;;;;15.48;3.42;;;;;;;21.06;43.41;98452.06;30859376;28;20054;-79
2022/04/02 09:53:11;;;;;;;29.30;4.90;;;;;;;20.17;47.16;98456.28;30888663;28;20054;-76
2022/04/02 10:08:47;;;;;;;15.67;3.30;;;;;;;21.07;45.59;98439.03;30893999;28;20062;-73
2022/04/02 10:23:54;;;;;;;19.15;3.30;;;;;;;22.04;43.05;98413.22;30846630;28;20340;-72
2022/04/02 10:38:57;;;;;;;17.52;4.53;;;;;;;23.40;40.14;98398.91;30864915;28;20061;-72
2022/04/02 10:54:12;;;;;;;18.92;4.68;;;;;;;21.96;42.60;98379.25;30857005;28;20050;-74
2022/04/02 11:09:39;;;;;;;16.08;4.10;;;;;;;21.70;43.76;98360.00;30848534;28;20050;-72
2022/04/02 11:25:05;;;;;;;22.85;4.20;;;;;;;22.58;41.65;98356.38;30844910;28;20562;-73
2022/04/02 11:40:13;;;;;;;11.73;3.67;;;;;;;22.93;38.46;98301.66;30857759;28;20058;-73
2022/04/02 11:55:16;;;;;;;18.58;4.07;;;;;;;23.67;35.99;98302.47;30848680;28;20102;-73
2022/04/02 12:10:26;;;;;;;17.10;5.28;;;;;;;21.67;40.23;98294.81;30817483;28;20042;-74
2022/04/02 12:25:29;;;;;;;21.80;4.55;;;;;;;20.81;44.18;98281.81;30874196;28;20754;-78
2022/04/02 12:40:38;;;;;;;27.45;5.20;;;;;;;20.61;44.54;98263.91;30838244;28;20059;-79
2022/04/02 12:55:46;;;;;;;17.92;5.18;;;;;;;19.79;45.97;98246.34;30845935;28;20053;-83
2022/04/02 13:10:53;;;;;;;25.85;4.97;;;;;;;18.99;46.46;98293.97;31258794;23;20062;-69
2022/04/02 13:26:05;;;;;;;27.48;5.38;;;;;;;18.38;50.27;98270.66;30995504;28;20053;-70
2022/04/02 13:41:12;;;;;;;14.30;3.47;;;;;;;17.43;57.41;98296.13;30946914;28;20050;-71
2022/04/02 13:56:22;;;;;;;17.33;3.97;;;;;;;15.59;74.56;98271.94;31001638;28;20417;-75
2022/04/02 14:11:35;;;;;;;10.43;2.60;;;;;;;14.55;84.72;98340.09;30992721;28;20062;-71
2022/04/02 14:27:15;;;;;;;7.27;2.37;;;;;;;12.75;95.97;98355.91;30967119;28;20097;-68
2022/04/02 14:42:47;;;;;;;7.03;2.93;;;;;;;12.62;100.00;98391.59;30990910;28;20545;-70
2022/04/02 14:58:07;;;;;;;12.97;4.40;;;;;;;13.15;100.00;98387.88;30995279;28;20042;-70
2022/04/02 15:13:18;;;;;;;16.50;4.50;;;;;;;13.30;100.00;98394.00;30954658;28;20058;-70
2022/04/02 15:28:25;;;;;;;8.73;3.27;;;;;;;13.36;93.07;98390.59;30941302;28;20129;-75
2022/04/02 15:43:35;;;;;;;9.83;2.60;;;;;;;13.31;92.74;98400.94;30946030;28;20228;-71
2022/04/02 15:58:38;;;;;;;6.63;2.83;;;;;;;13.21;89.72;98429.56;30932887;28;20054;-70
2022/04/02 16:14:30;;;;;;;6.67;3.30;;;;;;;13.05;92.48;98454.56;31391015;27;20829;-69
2022/04/02 16:29:35;;;;;;;8.70;3.80;;;;;;;12.95;91.14;98466.84;31267764;28;20053;-69
2022/04/02 16:44:39;;;;;;;11.80;4.27;;;;;;;12.82;92.85;98477.25;31291379;28;20075;-69
2022/04/02 16:59:42;;;;;;;8.53;3.20;;;;;;;12.80;96.23;98487.88;31278638;28;20080;-72
2022/04/02 17:14:47;;;;;;;9.17;3.23;;;;;;;12.81;100.00;98508.44;31263226;28;20049;-71
2022/04/02 17:29:53;;;;;;;13.00;4.03;;;;;;;12.74;95.26;98527.91;31202723;28;20121;-70
2022/04/02 17:45:25;;;;;;;13.83;4.73;;;;;;;12.59;96.72;98542.25;31233831;28;20416;-72
2022/04/02 18:00:39;;;;;;;13.63;3.77;;;;;;;12.46;95.84;98557.38;31225219;28;20046;-71
2022/04/02 18:15:42;;;;;;;8.43;4.07;;;;;;;12.25;97.75;98570.09;31162977;28;20052;-71
2022/04/02 18:30:47;;;;;;;8.77;3.40;;;;;;;12.10;95.61;98580.16;31136034;28;20057;-71
2022/04/02 18:45:50;;;;;;;7.43;3.57;;;;;;;12.03;96.23;98613.94;31117970;28;20054;-71
2022/04/02 19:00:53;;;;;;;8.17;3.33;;;;;;;11.90;99.02;98644.06;31101764;28;20168;-71
2022/04/02 19:15:55;;;;;;;15.50;3.87;;;;;;;11.68;98.61;98651.69;31132534;28;20053;-71
2022/04/02 19:30:57;;;;;;;12.90;3.73;;;;;;;11.64;97.46;98667.41;31118493;28;20056;-70
2022/04/02 19:45:59;;;;;;;16.83;6.70;;;;;;;11.56;100.00;98696.91;31150035;28;21255;-72
2022/04/02 20:01:02;;;;;;;14.57;4.43;;;;;;;11.53;100.00;98692.38;31162555;28;20150;-81
2022/04/02 20:16:06;;;;;;;16.23;4.90;;;;;;;11.43;100.00;98695.59;31237769;28;20136;-80
2022/04/02 20:31:12;;;;;;;8.10;3.77;;;;;;;11.39;100.00;98686.84;31224271;28;20049;-80
2022/04/02 20:46:15;;;;;;;9.20;3.60;;;;;;;11.30;100.00;98717.50;31202583;28;20056;-81
2022/04/02 21:01:17;;;;;;;9.37;4.20;;;;;;;11.22;100.00;98722.50;31247497;28;20076;-82
2022/04/02 21:16:19;;;;;;;11.27;4.50;;;;;;;11.10;100.00;98717.97;31208383;28;20049;-80
2022/04/02 21:31:21;;;;;;;8.70;4.13;;;;;;;11.07;100.00;98732.50;31196758;28;20049;-81
2022/04/02 21:46:23;;;;;;;7.00;3.40;;;;;;;11.11;100.00;98719.47;31192844;28;20547;-82
2022/04/02 22:01:48;;;;;;;9.80;4.57;;;;;;;10.91;100.00;98730.06;31181790;28;20144;-81
2022/04/02 22:16:50;;;;;;;8.17;4.57;;;;;;;10.75;100.00;98739.28;31228910;28;20041;-80
2022/04/02 22:31:52;;;;;;;11.53;3.37;;;;;;;10.69;100.00;98751.16;31188344;28;20049;-82
2022/04/02 22:46:55;;;;;;;10.63;4.33;;;;;;;10.58;100.00;98755.09;31179222;28;20059;-82
2022/04/02 23:01:57;;;;;;;10.20;4.33;;;;;;;10.51;100.00;98741.06;31169277;28;20054;-81
2022/04/02 23:16:59;;;;;;;14.20;5.17;;;;;;;10.51;100.00;98747.25;31190482;28;20132;-82
2022/04/02 23:32:01;;;;;;;14.93;4.87;;;;;;;10.68;100.00;98761.28;31230145;28;20090;-81
2022/04/02 23:47:04;;;;;;;17.47;5.90;;;;;;;10.62;100.00;98784.06;31189398;28;21535;-82
